Time,TemperatureF,DewpointF,PressureIn,WindDirection,WindDirectionDegrees,WindSpeedMPH,WindSpeedGustMPH,Humidity,HourlyPrecipIn,Conditions,Clouds,dailyrainin,SoftwareType,DateUTC
2013-02-27 00:00:00,9.0,-99.9,-100.00,West,260,19.0,26.0,-999,-99.99,,,-99.99,,2013-02-27 07:00:00,
2013-02-27 00:52:00,9.0,-99.9,-100.00,West,260,19.0,26.0,-999,-99.99,,,-99.99,,2013-02-27 07:52:00,
2013-02-27 01:00:00,7.0,-99.9,-100.00,West,265,17.0,22.0,-999,-99.99,,,-99.99,,2013-02-27 08:00:00,
2013-02-27 01:53:00,7.0,-99.9,-100.00,West,265,17.0,22.0,-999,-99.99,,,-99.99,,2013-02-27 08:53:00,
2013-02-27 02:00:00,9.0,-99.9,-100.00,West,278,17.0,26.0,-999,-99.99,,,-99.99,,2013-02-27 09:00:00,
2013-02-27 02:52:00,9.0,-99.9,-100.00,West,278,17.0,26.0,-999,-99.99,,,-99.99,,2013-02-27 09:52:00,
2013-02-27 03:00:00,9.0,-99.9,-100.00,West,267,16.0,20.0,-999,-99.99,,,-99.99,,2013-02-27 10:00:00,
2013-02-27 03:53:00,9.0,-99.9,-100.00,West,267,16.0,20.0,-999,-99.99,,,-99.99,,2013-02-27 10:53:00,
2013-02-27 04:00:00,5.0,-99.9,-100.00,West,261,15.0,21.0,-999,-99.99,,,-99.99,,2013-02-27 11:00:00,
2013-02-27 04:52:00,5.0,-99.9,-100.00,West,261,15.0,21.0,-999,-99.99,,,-99.99,,2013-02-27 11:52:00,
2013-02-27 05:00:00,3.0,-99.9,-100.00,West,263,14.0,16.0,-999,-99.99,,,-99.99,,2013-02-27 12:00:00,
2013-02-27 05:53:00,3.0,-99.9,-100.00,West,263,14.0,16.0,-999,-99.99,,,-99.99,,2013-02-27 12:53:00,
2013-02-27 06:00:00,3.0,-99.9,-100.00,WSW,249,32.0,34.0,-999,-99.99,,,-99.99,,2013-02-27 13:00:00,
2013-02-27 06:53:00,3.0,-99.9,-100.00,WSW,249,32.0,34.0,-999,-99.99,,,-99.99,,2013-02-27 13:53:00,
2013-02-27 07:00:00,3.0,-99.9,-100.00,WSW,245,22.0,35.0,-999,-99.99,,,-99.99,,2013-02-27 14:00:00,
2013-02-27 07:53:00,3.0,-99.9,-100.00,WSW,245,22.0,35.0,-999,-99.99,,,-99.99,,2013-02-27 14:53:00,
2013-02-27 08:00:00,5.0,-99.9,-100.00,WSW,241,34.0,34.0,-999,-99.99,,,-99.99,,2013-02-27 15:00:00,
2013-02-27 08:52:00,5.0,-99.9,-100.00,WSW,241,34.0,34.0,-999,-99.99,,,-99.99,,2013-02-27 15:52:00,
2013-02-27 09:00:00,7.0,-99.9,-100.00,WSW,244,23.0,33.0,-999,-99.99,,,-99.99,,2013-02-27 16:00:00,
2013-02-27 09:52:00,7.0,-99.9,-100.00,WSW,244,23.0,33.0,-999,-99.99,,,-99.99,,2013-02-27 16:52:00,
2013-02-27 10:00:00,9.0,-99.9,-100.00,WSW,238,29.0,38.0,-999,-99.99,,,-99.99,,2013-02-27 17:00:00,
2013-02-27 10:52:00,9.0,-99.9,-100.00,WSW,238,29.0,38.0,-999,-99.99,,,-99.99,,2013-02-27 17:52:00,
2013-02-27 11:00:00,10.0,-99.9,-100.00,SW,236,33.0,38.0,-999,-99.99,,,-99.99,,2013-02-27 18:00:00,
2013-02-27 11:52:00,10.0,-99.9,-100.00,SW,236,33.0,38.0,-999,-99.99,,,-99.99,,2013-02-27 18:52:00,
2013-02-27 12:00:00,14.0,-99.9,-100.00,SW,229,29.0,33.0,-999,-99.99,,,-99.99,,2013-02-27 19:00:00,
2013-02-27 12:33:00,14.0,-99.9,-100.00,SW,229,29.0,33.0,-999,-99.99,,,-99.99,,2013-02-27 19:33:00,
2013-02-27 12:42:00,14.0,-99.9,-100.00,SW,229,29.0,33.0,-999,-99.99,,,-99.99,,2013-02-27 19:42:00,
2013-02-27 12:52:00,14.0,-99.9,-100.00,SW,229,29.0,33.0,-999,-99.99,,,-99.99,,2013-02-27 19:52:00,
2013-02-27 13:00:00,16.0,-99.9,-100.00,WSW,255,13.0,19.0,-999,-99.99,,,-99.99,,2013-02-27 20:00:00,
2013-02-27 13:53:00,16.0,-99.9,-100.00,WSW,255,13.0,19.0,-999,-99.99,,,-99.99,,2013-02-27 20:53:00,
2013-02-27 14:00:00,16.0,-99.9,-100.00,SW,234,25.0,27.0,-999,-99.99,,,-99.99,,2013-02-27 21:00:00,
2013-02-27 14:52:00,16.0,-99.9,-100.00,SW,234,25.0,27.0,-999,-99.99,,,-99.99,,2013-02-27 21:52:00,
2013-02-27 15:00:00,16.0,-99.9,-100.00,WSW,241,22.0,25.0,-999,-99.99,,,-99.99,,2013-02-27 22:00:00,
2013-02-27 15:52:00,16.0,-99.9,-100.00,WSW,241,22.0,25.0,-999,-99.99,,,-99.99,,2013-02-27 22:52:00,
2013-02-27 16:00:00,16.0,-99.9,-100.00,WSW,248,21.0,26.0,-999,-99.99,,,-99.99,,2013-02-27 23:00:00,
2013-02-27 16:53:00,16.0,-99.9,-100.00,WSW,248,21.0,26.0,-999,-99.99,,,-99.99,,2013-02-27 23:53:00,
2013-02-27 17:00:00,12.0,-99.9,-100.00,WSW,256,12.0,21.0,-999,-99.99,,,-99.99,,2013-02-28 00:00:00,
2013-02-27 17:52:00,12.0,-99.9,-100.00,WSW,256,12.0,21.0,-999,-99.99,,,-99.99,,2013-02-28 00:52:00,
2013-02-27 18:00:00,7.0,-99.9,-100.00,WSW,240,10.0,17.0,-999,-99.99,,,-99.99,,2013-02-28 01:00:00,
2013-02-27 18:52:00,7.0,-99.9,-100.00,WSW,240,10.0,17.0,-999,-99.99,,,-99.99,,2013-02-28 01:52:00,
2013-02-27 19:00:00,9.0,-99.9,-100.00,SW,229,19.0,29.0,-999,-99.99,,,-99.99,,2013-02-28 02:00:00,
2013-02-27 20:00:00,7.0,-99.9,-100.00,WSW,249,27.0,38.0,-999,-99.99,,,-99.99,,2013-02-28 03:00:00,
2013-02-27 20:52:00,7.0,-99.9,-100.00,WSW,249,27.0,38.0,-999,-99.99,,,-99.99,,2013-02-28 03:52:00,
2013-02-27 21:00:00,7.0,-99.9,-100.00,WSW,241,32.0,36.0,-999,-99.99,,,-99.99,,2013-02-28 04:00:00,
2013-02-27 21:52:00,7.0,-99.9,-100.00,WSW,241,32.0,36.0,-999,-99.99,,,-99.99,,2013-02-28 04:52:00,
2013-02-27 22:00:00,7.0,-99.9,-100.00,WSW,244,22.0,36.0,-999,-99.99,,,-99.99,,2013-02-28 05:00:00,
2013-02-27 22:52:00,7.0,-99.9,-100.00,WSW,244,22.0,36.0,-999,-99.99,,,-99.99,,2013-02-28 05:52:00,
2013-02-27 23:00:00,7.0,-99.9,-100.00,WSW,242,29.0,38.0,-999,-99.99,,,-99.99,,2013-02-28 06:00:00,
2013-02-27 23:52:00,7.0,-99.9,-100.00,WSW,242,29.0,38.0,-999,-99.99,,,-99.99,,2013-02-28 06:52:00,